createdAt,value
2023-08-05T00:01:04.735Z,14.68
2023-08-05T00:03:37.208Z,14.67
2023-08-05T00:06:07.047Z,14.67
2023-08-05T00:08:36.859Z,14.66
2023-08-05T00:11:06.815Z,14.70
2023-08-05T00:13:36.992Z,14.69
2023-08-05T00:16:07.978Z,14.65
2023-08-05T00:18:40.526Z,14.66
2023-08-05T00:21:10.358Z,14.68
2023-08-05T00:23:40.173Z,14.68
2023-08-05T00:26:10.021Z,14.68
2023-08-05T00:28:39.835Z,14.75
2023-08-05T00:31:11.876Z,14.76
2023-08-05T00:33:44.246Z,14.73
2023-08-05T00:36:15.269Z,14.71
2023-08-05T00:38:45.072Z,14.72
2023-08-05T00:41:14.853Z,14.74
2023-08-05T00:43:44.755Z,14.72
2023-08-05T00:46:15.055Z,14.74
2023-08-05T00:48:47.512Z,14.72
2023-08-05T00:51:17.328Z,14.71
2023-08-05T00:53:48.048Z,14.73
2023-08-05T00:56:18.086Z,14.73
2023-08-05T00:58:48.393Z,14.74
2023-08-05T01:01:18.195Z,14.71
2023-08-05T01:03:50.707Z,14.76
2023-08-05T01:06:20.898Z,14.75
2023-08-05T01:08:50.804Z,14.75
2023-08-05T01:11:20.734Z,14.74
2023-08-05T01:13:51.426Z,14.74
2023-08-05T01:16:21.262Z,14.73
2023-08-05T01:18:54.315Z,14.75
2023-08-05T01:21:28.653Z,14.77
2023-08-05T01:24:04.629Z,14.77
2023-08-05T01:26:37.856Z,14.77
2023-08-05T01:29:08.778Z,14.63
2023-08-05T01:31:38.707Z,14.63
2023-08-05T01:34:09.434Z,14.62
2023-08-05T01:36:39.148Z,14.60
2023-08-05T01:39:08.856Z,14.63
2023-08-05T01:41:41.214Z,14.61
2023-08-05T01:44:11.032Z,14.57
2023-08-05T01:46:40.842Z,14.54
2023-08-05T01:49:10.606Z,14.55
2023-08-05T01:51:40.324Z,14.54
2023-08-05T01:54:10.038Z,14.57
2023-08-05T01:56:42.330Z,14.58
2023-08-05T01:59:12.128Z,14.59
2023-08-05T02:01:46.133Z,14.61
2023-08-05T02:04:16.648Z,14.66
2023-08-05T02:06:46.634Z,14.64
2023-08-05T02:09:16.396Z,14.62
2023-08-05T02:11:48.749Z,14.53
2023-08-05T02:14:19.122Z,14.51
2023-08-05T02:16:49.419Z,14.54
2023-08-05T02:19:19.501Z,14.56
2023-08-05T02:21:49.218Z,14.57
2023-08-05T02:24:18.962Z,14.56
2023-08-05T02:26:53.018Z,14.58
2023-08-05T02:29:22.941Z,14.61
2023-08-05T02:31:52.725Z,14.60
2023-08-05T02:34:22.704Z,14.57
2023-08-05T02:36:52.816Z,14.56
2023-08-05T02:39:23.487Z,14.56
2023-08-05T02:41:55.820Z,14.58
2023-08-05T02:44:25.911Z,14.56
2023-08-05T02:46:55.694Z,14.56
2023-08-05T02:49:25.585Z,14.61
2023-08-05T02:51:55.462Z,14.57
2023-08-05T02:54:25.310Z,14.54
2023-08-05T02:56:57.604Z,14.56
2023-08-05T02:59:27.392Z,14.55
2023-08-05T03:01:57.338Z,14.56
2023-08-05T03:04:27.172Z,14.54
2023-08-05T03:06:56.975Z,14.55
2023-08-05T03:09:26.954Z,14.54
2023-08-05T03:11:59.375Z,14.50
2023-08-05T03:14:30.211Z,14.46
2023-08-05T03:17:00.360Z,14.44
2023-08-05T03:19:30.430Z,14.47
2023-08-05T03:22:00.673Z,14.51
2023-08-05T03:24:30.517Z,14.53
2023-08-05T03:27:03.214Z,14.49
2023-08-05T03:29:34.012Z,14.51
2023-08-05T03:32:04.126Z,14.55
2023-08-05T03:34:34.317Z,14.53
2023-08-05T03:37:06.198Z,14.56
2023-08-05T03:39:36.081Z,14.55
2023-08-05T03:42:09.149Z,14.57
2023-08-05T03:44:39.053Z,14.57
2023-08-05T03:47:08.960Z,14.57
2023-08-05T03:49:38.863Z,14.59
2023-08-05T03:52:09.683Z,14.62
2023-08-05T03:54:39.616Z,14.64
2023-08-05T03:57:12.322Z,14.61
2023-08-05T03:59:44.690Z,14.61
2023-08-05T04:02:15.682Z,14.58
2023-08-05T04:04:46.269Z,14.58
2023-08-05T04:07:20.104Z,14.61
2023-08-05T04:09:53.063Z,14.58
2023-08-05T04:12:26.670Z,14.60
2023-08-05T04:15:00.197Z,14.60
2023-08-05T04:17:32.039Z,14.62
2023-08-05T04:20:02.025Z,14.64
2023-08-05T04:22:31.886Z,14.68
2023-08-05T04:25:01.657Z,14.68
2023-08-05T04:27:34.055Z,14.65
2023-08-05T04:30:04.210Z,14.68
2023-08-05T04:32:34.211Z,14.61
2023-08-05T04:35:04.681Z,14.59
2023-08-05T04:37:34.283Z,14.59
2023-08-05T04:40:04.140Z,14.57
2023-08-05T04:42:36.613Z,14.54
2023-08-05T04:45:06.962Z,14.52
2023-08-05T04:47:36.936Z,14.46
2023-08-05T04:50:07.409Z,14.44
2023-08-05T04:52:37.249Z,14.44
2023-08-05T04:55:13.885Z,14.40
2023-08-05T04:57:46.533Z,14.39
2023-08-05T05:00:16.909Z,14.36
2023-08-05T05:02:46.757Z,14.34
2023-08-05T05:05:16.717Z,14.30
2023-08-05T05:07:46.611Z,14.26
2023-08-05T05:10:16.515Z,14.21
2023-08-05T05:12:49.920Z,14.19
2023-08-05T05:15:21.221Z,14.18
2023-08-05T05:17:51.870Z,14.21
2023-08-05T05:20:22.111Z,14.23
2023-08-05T05:22:51.998Z,14.28
2023-08-05T05:25:21.816Z,14.34
2023-08-05T05:27:54.273Z,14.39
2023-08-05T05:30:24.038Z,14.44
2023-08-05T05:32:53.939Z,14.54
2023-08-05T05:35:23.771Z,14.62
2023-08-05T05:37:53.663Z,14.69
2023-08-05T05:40:23.479Z,14.75
2023-08-05T05:42:58.072Z,14.80
2023-08-05T05:45:29.614Z,14.88
2023-08-05T05:47:59.488Z,14.91
2023-08-05T05:50:29.428Z,14.97
2023-08-05T05:52:59.369Z,15.03
2023-08-05T05:55:29.387Z,15.03
2023-08-05T05:58:01.836Z,15.07
2023-08-05T06:00:31.744Z,15.14
2023-08-05T06:03:02.069Z,15.15
2023-08-05T06:05:32.006Z,15.20
2023-08-05T06:08:01.840Z,15.25
2023-08-05T06:10:31.627Z,15.31
2023-08-05T06:13:05.225Z,15.36
2023-08-05T06:15:46.598Z,15.41
2023-08-05T06:18:20.108Z,15.48
2023-08-05T06:20:50.780Z,15.55
2023-08-05T06:23:20.722Z,15.60
2023-08-05T06:25:50.472Z,15.62
2023-08-05T06:28:22.868Z,15.68
2023-08-05T06:30:52.701Z,15.72
2023-08-05T06:33:23.099Z,15.80
2023-08-05T06:35:52.736Z,15.83
2023-08-05T06:38:22.613Z,15.86
2023-08-05T06:40:53.009Z,15.90
2023-08-05T06:43:26.857Z,15.96
2023-08-05T06:45:56.984Z,15.96
2023-08-05T06:48:27.201Z,16.03
2023-08-05T06:50:57.286Z,16.11
2023-08-05T06:53:27.470Z,16.17
2023-08-05T06:56:04.542Z,16.23
2023-08-05T06:58:37.102Z,16.26
2023-08-05T07:01:07.121Z,16.27
2023-08-05T07:03:37.093Z,16.35
2023-08-05T07:06:07.029Z,16.40
2023-08-05T07:08:36.914Z,16.44
2023-08-05T07:11:06.759Z,16.44
2023-08-05T07:13:39.187Z,16.45
2023-08-05T07:16:09.148Z,16.57
2023-08-05T07:18:39.069Z,16.60
2023-08-05T07:21:08.827Z,16.62
2023-08-05T07:23:38.601Z,16.66
2023-08-05T07:26:08.462Z,16.62
2023-08-05T07:28:40.930Z,16.60
2023-08-05T07:31:12.253Z,16.61
2023-08-05T07:33:43.723Z,16.68
2023-08-05T07:36:17.076Z,16.68
2023-08-05T07:38:47.959Z,16.67
2023-08-05T07:41:18.340Z,16.66
2023-08-05T07:43:52.337Z,16.76
2023-08-05T07:46:22.228Z,16.87
2023-08-05T07:48:53.810Z,17.03
2023-08-05T07:51:24.615Z,17.03
2023-08-05T07:53:55.343Z,17.12
2023-08-05T07:56:25.975Z,17.23
2023-08-05T07:58:58.437Z,17.33
2023-08-05T08:01:28.929Z,17.43
2023-08-05T08:04:03.378Z,17.41
2023-08-05T08:06:33.668Z,17.51
2023-08-05T08:09:03.505Z,17.71
2023-08-05T08:11:33.332Z,17.64
2023-08-05T08:14:06.363Z,17.77
2023-08-05T08:16:36.396Z,17.98
2023-08-05T08:19:07.165Z,17.97
2023-08-05T08:21:36.984Z,18.01
2023-08-05T08:24:08.862Z,18.36
2023-08-05T08:26:38.785Z,18.52
2023-08-05T08:29:11.350Z,18.81
2023-08-05T08:31:41.278Z,19.09
2023-08-05T08:34:11.159Z,19.24
2023-08-05T08:36:40.955Z,19.56
2023-08-05T08:39:10.818Z,19.85
2023-08-05T08:41:44.749Z,20.08
2023-08-05T08:44:19.687Z,20.38
2023-08-05T08:46:51.160Z,20.62
2023-08-05T08:49:21.468Z,20.91
2023-08-05T08:51:51.441Z,21.23
2023-08-05T08:54:21.715Z,21.63
2023-08-05T08:56:51.501Z,21.89
2023-08-05T08:59:24.097Z,22.13
2023-08-05T09:01:54.481Z,22.33
2023-08-05T09:04:25.052Z,22.46
2023-08-05T09:06:56.512Z,22.14
2023-08-05T09:09:26.403Z,22.02
2023-08-05T09:11:56.218Z,22.32
2023-08-05T09:14:28.781Z,22.58
2023-08-05T09:17:02.319Z,22.80
2023-08-05T09:19:33.187Z,23.01
2023-08-05T09:22:04.769Z,23.18
2023-08-05T09:24:34.705Z,23.18
2023-08-05T09:27:04.699Z,23.02
2023-08-05T09:29:38.027Z,22.49
2023-08-05T09:32:09.410Z,22.08
2023-08-05T09:34:40.343Z,22.39
2023-08-05T09:37:11.594Z,22.26
2023-08-05T09:39:48.065Z,22.81
2023-08-05T09:42:25.582Z,22.96
2023-08-05T09:45:00.221Z,22.78
2023-08-05T09:47:32.653Z,22.89
2023-08-05T09:50:06.350Z,23.03
2023-08-05T09:52:37.086Z,23.07
2023-08-05T09:55:08.940Z,23.31
2023-08-05T09:57:39.136Z,22.99
2023-08-05T10:00:13.937Z,22.59
2023-08-05T10:02:44.481Z,22.22
2023-08-05T10:05:15.268Z,21.94
2023-08-05T10:07:46.801Z,21.68
2023-08-05T10:10:21.350Z,21.58
2023-08-05T10:12:54.714Z,21.57
2023-08-05T10:15:31.303Z,21.78
2023-08-05T10:18:01.280Z,22.38
2023-08-05T10:20:38.538Z,22.87
2023-08-05T10:23:09.814Z,22.93
2023-08-05T10:25:44.469Z,22.42
2023-08-05T10:28:14.801Z,22.22
2023-08-05T10:30:47.635Z,21.98
2023-08-05T10:33:17.512Z,21.75
2023-08-05T10:35:47.737Z,21.67
2023-08-05T10:38:18.292Z,21.59
2023-08-05T10:40:53.000Z,21.54
2023-08-05T10:43:32.122Z,22.10
2023-08-05T10:46:05.916Z,22.56
2023-08-05T10:48:39.716Z,22.61
2023-08-05T10:51:11.797Z,23.09
2023-08-05T10:53:41.957Z,23.45
2023-08-05T10:56:12.352Z,23.65
2023-08-05T10:58:50.126Z,23.75
2023-08-05T11:01:22.607Z,23.96
2023-08-05T11:03:57.833Z,24.13
2023-08-05T11:06:29.086Z,24.12
2023-08-05T11:09:03.951Z,23.69
2023-08-05T11:11:34.019Z,23.29
2023-08-05T11:14:03.953Z,23.00
2023-08-05T11:16:36.447Z,22.74
2023-08-05T11:19:08.632Z,22.63
2023-08-05T11:21:39.625Z,22.55
2023-08-05T11:24:09.395Z,22.47
2023-08-05T11:26:39.293Z,22.31
2023-08-05T11:29:09.231Z,22.57
2023-08-05T11:31:41.719Z,22.54
2023-08-05T11:34:11.564Z,22.28
2023-08-05T11:36:41.367Z,22.61
2023-08-05T11:39:11.148Z,23.02
2023-08-05T11:41:41.011Z,23.30
2023-08-05T11:44:10.835Z,23.11
2023-08-05T11:46:52.985Z,22.93
2023-08-05T11:49:28.779Z,23.23
2023-08-05T11:51:58.570Z,23.41
2023-08-05T11:54:29.980Z,23.66
2023-08-05T11:57:00.866Z,23.89
2023-08-05T11:59:40.311Z,23.96
2023-08-05T12:02:13.923Z,24.15
2023-08-05T12:04:47.717Z,23.72
2023-08-05T12:07:18.660Z,23.46
2023-08-05T12:09:49.232Z,23.29
2023-08-05T12:12:20.035Z,23.06
2023-08-05T12:14:49.990Z,22.96
2023-08-05T12:17:22.418Z,22.80
2023-08-05T12:19:52.457Z,22.60
2023-08-05T12:22:22.274Z,22.45
2023-08-05T12:24:52.038Z,22.42
2023-08-05T12:27:21.921Z,22.49
2023-08-05T12:29:51.891Z,22.46
2023-08-05T12:32:24.344Z,22.46
2023-08-05T12:34:54.254Z,22.49
2023-08-05T12:37:24.007Z,22.50
2023-08-05T12:39:53.751Z,22.35
2023-08-05T12:42:23.576Z,22.40
2023-08-05T12:44:53.473Z,22.46
2023-08-05T12:47:26.015Z,22.59
2023-08-05T12:49:55.855Z,22.67
2023-08-05T12:52:34.136Z,22.53
2023-08-05T12:55:03.833Z,22.78
2023-08-05T12:57:33.988Z,22.91
2023-08-05T13:00:03.861Z,22.95
2023-08-05T13:02:36.516Z,23.12
2023-08-05T13:05:06.868Z,23.35
2023-08-05T13:07:37.261Z,23.40
2023-08-05T13:10:08.163Z,23.55
2023-08-05T13:12:38.699Z,23.72
2023-08-05T13:15:09.047Z,23.70
2023-08-05T13:17:41.428Z,23.40
2023-08-05T13:20:12.353Z,23.10
2023-08-05T13:22:42.244Z,23.11
2023-08-05T13:25:12.970Z,23.07
2023-08-05T13:27:43.450Z,22.76
2023-08-05T13:30:15.381Z,22.62
2023-08-05T13:32:47.989Z,22.49
2023-08-05T13:35:18.097Z,22.27
2023-08-05T13:37:47.782Z,22.13
2023-08-05T13:40:19.697Z,22.07
2023-08-05T13:42:49.675Z,22.26
2023-08-05T13:45:19.728Z,22.34
2023-08-05T13:47:54.640Z,22.29
2023-08-05T13:50:24.835Z,22.26
2023-08-05T13:52:54.611Z,22.09
2023-08-05T13:55:24.554Z,21.97
2023-08-05T13:57:54.725Z,21.86
2023-08-05T14:00:24.756Z,21.73
2023-08-05T14:02:57.884Z,21.66
2023-08-05T14:05:27.731Z,21.59
2023-08-05T14:07:57.520Z,21.58
2023-08-05T14:10:27.381Z,21.66
2023-08-05T14:12:57.415Z,21.72
2023-08-05T14:15:27.381Z,21.82
2023-08-05T14:17:59.931Z,22.03
2023-08-05T14:20:32.036Z,22.06
2023-08-05T14:23:02.099Z,21.96
2023-08-05T14:25:31.854Z,21.93
2023-08-05T14:28:01.770Z,21.90
2023-08-05T14:30:32.118Z,21.98
2023-08-05T14:33:04.728Z,21.99
2023-08-05T14:35:38.058Z,22.00
2023-08-05T14:38:09.192Z,21.95
2023-08-05T14:40:40.035Z,21.88
2023-08-05T14:43:09.857Z,21.79
2023-08-05T14:45:42.009Z,21.84
2023-08-05T14:48:14.701Z,21.88
2023-08-05T14:50:44.669Z,21.87
2023-08-05T14:53:14.492Z,21.90
2023-08-05T14:55:44.436Z,21.92
2023-08-05T14:58:14.403Z,21.85
2023-08-05T15:00:44.257Z,21.87
2023-08-05T15:03:16.783Z,21.89
2023-08-05T15:05:46.664Z,21.88
2023-08-05T15:08:16.604Z,21.85
2023-08-05T15:10:46.640Z,21.77
2023-08-05T15:13:16.538Z,21.77
2023-08-05T15:15:51.809Z,21.68
2023-08-05T15:18:24.472Z,21.67
2023-08-05T15:20:54.920Z,21.68
2023-08-05T15:23:30.661Z,21.66
2023-08-05T15:26:02.089Z,21.68
2023-08-05T15:28:32.429Z,21.62
2023-08-05T15:31:02.388Z,21.62
2023-08-05T15:33:35.052Z,21.59
2023-08-05T15:36:05.297Z,21.58
2023-08-05T15:38:35.139Z,21.57
2023-08-05T15:41:04.964Z,21.54
2023-08-05T15:43:35.026Z,21.52
2023-08-05T15:46:05.890Z,21.52
2023-08-05T15:48:38.344Z,21.45
2023-08-05T15:51:08.798Z,21.45
2023-08-05T15:53:38.395Z,21.37
2023-08-05T15:56:11.481Z,21.33
2023-08-05T15:58:41.543Z,21.35
2023-08-05T16:01:11.909Z,21.40
2023-08-05T16:03:44.415Z,21.40
2023-08-05T16:06:15.041Z,21.35
2023-08-05T16:08:45.163Z,21.28
2023-08-05T16:11:15.553Z,21.29
2023-08-05T16:13:45.512Z,21.31
2023-08-05T16:16:16.988Z,21.29
2023-08-05T16:18:51.897Z,21.25
2023-08-05T16:21:25.665Z,21.28
2023-08-05T16:23:58.007Z,21.30
2023-08-05T16:26:29.512Z,21.36
2023-08-05T16:28:59.285Z,21.40
2023-08-05T16:31:29.413Z,21.33
2023-08-05T16:34:01.959Z,21.32
2023-08-05T16:36:31.816Z,21.31
2023-08-05T16:39:03.507Z,21.27
2023-08-05T16:41:33.526Z,21.23
2023-08-05T16:44:04.149Z,21.20
2023-08-05T16:46:46.766Z,21.18
2023-08-05T16:49:21.111Z,21.15
2023-08-05T16:51:51.154Z,21.14
2023-08-05T16:54:20.859Z,21.14
2023-08-05T16:56:50.623Z,21.10
2023-08-05T16:59:20.483Z,21.09
2023-08-05T17:01:50.642Z,21.06
2023-08-05T17:04:23.298Z,21.06
2023-08-05T17:06:54.258Z,21.06
2023-08-05T17:09:24.055Z,21.05
2023-08-05T17:11:54.029Z,21.02
2023-08-05T17:14:24.172Z,21.00
2023-08-05T17:16:55.452Z,20.95
2023-08-05T17:19:27.972Z,20.97
2023-08-05T17:21:57.762Z,20.95
2023-08-05T17:24:29.334Z,20.91
2023-08-05T17:26:59.095Z,20.84
2023-08-05T17:29:28.832Z,20.83
2023-08-05T17:31:58.629Z,20.83
2023-08-05T17:34:31.048Z,20.81
2023-08-05T17:37:00.917Z,20.76
2023-08-05T17:39:30.648Z,20.75
2023-08-05T17:42:00.500Z,20.64
2023-08-05T17:44:32.418Z,20.61
2023-08-05T17:46:59.571Z,20.57
2023-08-05T17:49:31.944Z,20.59
2023-08-05T17:52:03.994Z,20.57
2023-08-05T17:54:33.805Z,20.51
2023-08-05T17:57:03.678Z,20.46
2023-08-05T17:59:33.492Z,20.39
2023-08-05T18:02:03.524Z,20.30
2023-08-05T18:04:35.948Z,20.33
2023-08-05T18:07:05.737Z,20.25
2023-08-05T18:09:35.510Z,20.20
2023-08-05T18:12:05.912Z,20.16
2023-08-05T18:14:35.741Z,20.12
2023-08-05T18:17:05.597Z,20.07
2023-08-05T18:22:33.339Z,19.95
2023-08-05T18:25:03.232Z,19.91
2023-08-05T18:27:33.143Z,19.90
2023-08-05T18:30:02.883Z,19.84
2023-08-05T18:32:32.701Z,19.84
2023-08-05T18:35:02.535Z,19.78
2023-08-05T18:37:34.896Z,19.73
2023-08-05T18:40:04.699Z,19.68
2023-08-05T18:42:34.488Z,19.67
2023-08-05T18:45:04.391Z,19.69
2023-08-05T18:47:34.337Z,19.71
2023-08-05T18:50:04.204Z,19.67
2023-08-05T18:52:36.734Z,19.65
2023-08-05T18:55:07.693Z,19.60
2023-08-05T18:57:37.474Z,19.58
2023-08-05T19:00:09.432Z,19.53
2023-08-05T19:02:39.256Z,19.49
2023-08-05T19:05:09.364Z,19.46
2023-08-05T19:07:42.033Z,19.41
2023-08-05T19:10:12.684Z,19.40
2023-08-05T19:12:42.551Z,19.30
2023-08-05T19:15:13.316Z,19.23
2023-08-05T19:17:43.141Z,19.21
2023-08-05T19:20:13.446Z,19.19
2023-08-05T19:22:46.365Z,19.11
2023-08-05T19:25:16.202Z,19.11
2023-08-05T19:27:54.497Z,19.10
2023-08-05T19:30:25.401Z,19.09
2023-08-05T19:32:57.186Z,19.01
2023-08-05T19:35:30.201Z,19.00
2023-08-05T19:38:02.610Z,19.01
2023-08-05T19:40:32.475Z,19.01
2023-08-05T19:43:02.273Z,19.05
2023-08-05T19:45:32.114Z,19.10
2023-08-05T19:48:01.954Z,19.06
2023-08-05T19:50:31.867Z,18.91
2023-08-05T19:53:04.282Z,18.75
2023-08-05T19:55:34.785Z,18.67
2023-08-05T19:58:04.680Z,18.55
2023-08-05T20:00:34.599Z,18.51
2023-08-05T20:03:04.508Z,18.23
2023-08-05T20:05:35.197Z,17.80
2023-08-05T20:08:08.297Z,17.64
2023-08-05T20:10:38.132Z,17.38
2023-08-05T20:13:07.991Z,17.23
2023-08-05T20:15:37.932Z,17.22
2023-08-05T20:18:08.054Z,17.18
2023-08-05T20:20:37.959Z,17.14
2023-08-05T20:23:11.000Z,17.14
2023-08-05T20:25:40.803Z,17.10
2023-08-05T20:28:10.661Z,17.18
2023-08-05T20:30:40.596Z,17.17
2023-08-05T20:33:10.549Z,17.08
2023-08-05T20:35:40.406Z,17.10
2023-08-05T20:38:14.354Z,17.13
2023-08-05T20:40:44.213Z,17.06
2023-08-05T20:43:14.117Z,17.11
2023-08-05T20:45:44.022Z,17.13
2023-08-05T20:48:13.874Z,17.10
2023-08-05T20:50:43.751Z,17.06
2023-08-05T20:53:18.545Z,17.00
2023-08-05T20:55:50.123Z,17.04
2023-08-05T20:58:21.517Z,17.05
2023-08-05T21:00:51.334Z,16.97
2023-08-05T21:03:21.229Z,16.91
2023-08-05T21:05:51.100Z,16.87
2023-08-05T21:08:23.571Z,16.83
2023-08-05T21:11:03.651Z,16.85
2023-08-05T21:13:33.409Z,16.85
2023-08-05T21:16:03.314Z,16.85
2023-08-05T21:18:33.918Z,16.90
2023-08-05T21:21:04.186Z,16.86
2023-08-05T21:23:36.569Z,16.86
2023-08-05T21:26:06.472Z,16.86
2023-08-05T21:28:36.346Z,16.90
2023-08-05T21:31:06.409Z,16.92
2023-08-05T21:33:36.344Z,16.85
2023-08-05T21:36:06.705Z,16.81
2023-08-05T21:38:38.899Z,16.79
2023-08-05T21:41:08.706Z,16.76
2023-08-05T21:43:38.558Z,16.74
2023-08-05T21:46:08.449Z,16.71
2023-08-05T21:48:38.297Z,16.78
2023-08-05T21:51:08.118Z,16.73
2023-08-05T21:53:40.522Z,16.67
2023-08-05T21:56:10.338Z,16.63
2023-08-05T21:58:40.238Z,16.62
2023-08-05T22:01:10.077Z,16.62
2023-08-05T22:03:39.978Z,16.59
2023-08-05T22:06:11.163Z,16.48
2023-08-05T22:08:43.575Z,16.51
2023-08-05T22:11:13.451Z,16.43
2023-08-05T22:13:44.254Z,16.42
2023-08-05T22:16:14.086Z,16.48
2023-08-05T22:18:44.577Z,16.48
2023-08-05T22:21:14.521Z,16.43
2023-08-05T22:23:46.919Z,16.32
2023-08-05T22:26:16.735Z,16.27
2023-08-05T22:28:47.727Z,16.32
2023-08-05T22:31:17.619Z,16.37
2023-08-05T22:33:47.492Z,16.42
2023-08-05T22:36:18.142Z,16.45
2023-08-05T22:38:50.568Z,16.46
2023-08-05T22:41:20.374Z,16.38
2023-08-05T22:43:52.850Z,16.32
2023-08-05T22:46:22.680Z,16.26
2023-08-05T22:48:52.508Z,16.26
2023-08-05T22:51:22.310Z,16.18
2023-08-05T22:53:54.764Z,16.16
2023-08-05T22:56:24.553Z,16.05
2023-08-05T22:58:55.906Z,15.93
2023-08-05T23:01:26.009Z,15.96
2023-08-05T23:03:55.870Z,15.84
2023-08-05T23:06:25.661Z,15.83
2023-08-05T23:08:58.087Z,15.85
2023-08-05T23:11:29.043Z,15.84
2023-08-05T23:13:58.918Z,15.75
2023-08-05T23:16:28.890Z,15.68
2023-08-05T23:18:58.770Z,15.56
2023-08-05T23:21:28.875Z,15.44
2023-08-05T23:24:01.383Z,15.40
2023-08-05T23:26:31.175Z,15.41
2023-08-05T23:29:01.562Z,15.44
2023-08-05T23:31:31.373Z,15.50
2023-08-05T23:34:01.269Z,15.52
2023-08-05T23:36:31.224Z,15.58
2023-08-05T23:39:03.612Z,15.57
2023-08-05T23:41:33.409Z,15.43
2023-08-05T23:44:03.281Z,15.38
2023-08-05T23:46:33.193Z,15.43
2023-08-05T23:49:03.203Z,15.46
2023-08-05T23:51:33.117Z,15.41
2023-08-05T23:54:05.615Z,15.41
2023-08-05T23:56:35.457Z,15.43
2023-08-05T23:59:05.241Z,15.44
